sensor_id;sensor_type;location;lat;lon;timestamp;pressure;altitude;pressure_sealevel;temperature;humidity
9822;BME280;4950;46.042;14.472;2024-01-15T00:00:08;96786.91;;;6.08;85.91
9822;BME280;4950;46.042;14.472;2024-01-15T00:02:36;96787.06;;;6.06;86.13
9822;BME280;4950;46.042;14.472;2024-01-15T00:05:04;96782.56;;;6.08;86.22
9822;BME280;4950;46.042;14.472;2024-01-15T00:07:30;96772.88;;;6.10;86.24
9822;BME280;4950;46.042;14.472;2024-01-15T00:09:57;96778.38;;;6.07;86.47
9822;BME280;4950;46.042;14.472;2024-01-15T00:12:24;96772.66;;;5.97;86.81
9822;BME280;4950;46.042;14.472;2024-01-15T00:14:50;96765.22;;;6.02;86.90
9822;BME280;4950;46.042;14.472;2024-01-15T00:17:17;96760.16;;;6.09;86.54
9822;BME280;4950;46.042;14.472;2024-01-15T00:19:45;96757.50;;;6.02;86.98
9822;BME280;4950;46.042;14.472;2024-01-15T00:22:12;96756.50;;;6.03;86.95
9822;BME280;4950;46.042;14.472;2024-01-15T00:24:39;96755.84;;;6.09;86.53
9822;BME280;4950;46.042;14.472;2024-01-15T00:27:05;96752.09;;;6.12;86.79
9822;BME280;4950;46.042;14.472;2024-01-15T00:29:32;96760.53;;;6.06;86.41
9822;BME280;4950;46.042;14.472;2024-01-15T00:31:58;96752.63;;;6.07;86.40
9822;BME280;4950;46.042;14.472;2024-01-15T00:34:25;96753.25;;;6.09;86.67
9822;BME280;4950;46.042;14.472;2024-01-15T00:36:53;96751.47;;;6.10;86.06
9822;BME280;4950;46.042;14.472;2024-01-15T00:39:20;96746.31;;;6.10;86.22
9822;BME280;4950;46.042;14.472;2024-01-15T00:41:47;96741.16;;;6.10;86.22
9822;BME280;4950;46.042;14.472;2024-01-15T00:44:13;96736.81;;;6.10;86.08
9822;BME280;4950;46.042;14.472;2024-01-15T00:46:44;96738.41;;;6.11;85.32
9822;BME280;4950;46.042;14.472;2024-01-15T00:49:11;96736.09;;;6.17;85.52
9822;BME280;4950;46.042;14.472;2024-01-15T00:51:39;96732.28;;;6.12;85.46
9822;BME280;4950;46.042;14.472;2024-01-15T00:54:07;96726.91;;;5.99;85.96
9822;BME280;4950;46.042;14.472;2024-01-15T00:56:34;96728.88;;;5.97;85.67
9822;BME280;4950;46.042;14.472;2024-01-15T00:59:00;96723.00;;;6.03;85.65
9822;BME280;4950;46.042;14.472;2024-01-15T01:01:27;96720.81;;;6.00;85.53
9822;BME280;4950;46.042;14.472;2024-01-15T01:03:54;96726.88;;;6.07;85.66
9822;BME280;4950;46.042;14.472;2024-01-15T01:06:22;96717.19;;;6.09;85.38
9822;BME280;4950;46.042;14.472;2024-01-15T01:08:49;96721.81;;;6.14;84.95
9822;BME280;4950;46.042;14.472;2024-01-15T01:11:17;96716.94;;;6.19;84.38
9822;BME280;4950;46.042;14.472;2024-01-15T01:13:43;96710.34;;;6.17;84.57
9822;BME280;4950;46.042;14.472;2024-01-15T01:16:10;96705.56;;;6.13;84.69
9822;BME280;4950;46.042;14.472;2024-01-15T01:18:36;96690.72;;;6.16;84.86
9822;BME280;4950;46.042;14.472;2024-01-15T01:21:03;96683.44;;;6.19;84.78
9822;BME280;4950;46.042;14.472;2024-01-15T01:23:30;96674.56;;;6.22;84.41
9822;BME280;4950;46.042;14.472;2024-01-15T01:25:57;96670.81;;;6.24;84.29
9822;BME280;4950;46.042;14.472;2024-01-15T01:28:25;96660.94;;;6.28;83.59
9822;BME280;4950;46.042;14.472;2024-01-15T01:30:51;96663.38;;;6.29;83.84
9822;BME280;4950;46.042;14.472;2024-01-15T01:33:18;96652.06;;;6.30;83.55
9822;BME280;4950;46.042;14.472;2024-01-15T01:35:45;96660.78;;;6.29;83.82
9822;BME280;4950;46.042;14.472;2024-01-15T01:38:12;96662.81;;;6.34;83.37
9822;BME280;4950;46.042;14.472;2024-01-15T01:40:38;96647.97;;;6.36;83.47
9822;BME280;4950;46.042;14.472;2024-01-15T01:43:05;96650.72;;;6.35;84.09
9822;BME280;4950;46.042;14.472;2024-01-15T01:45:33;96660.25;;;6.34;83.68
9822;BME280;4950;46.042;14.472;2024-01-15T01:48:00;96651.72;;;6.33;83.73
9822;BME280;4950;46.042;14.472;2024-01-15T01:50:27;96641.25;;;6.35;83.88
9822;BME280;4950;46.042;14.472;2024-01-15T01:52:55;96636.88;;;6.36;83.12
9822;BME280;4950;46.042;14.472;2024-01-15T01:55:24;96636.88;;;6.36;83.27
9822;BME280;4950;46.042;14.472;2024-01-15T01:57:52;96632.88;;;6.33;83.53
9822;BME280;4950;46.042;14.472;2024-01-15T02:00:19;96630.22;;;6.26;84.25
9822;BME280;4950;46.042;14.472;2024-01-15T02:02:47;96623.19;;;6.20;84.56
9822;BME280;4950;46.042;14.472;2024-01-15T02:05:14;96631.47;;;6.16;85.32
9822;BME280;4950;46.042;14.472;2024-01-15T02:07:44;96621.16;;;6.16;85.02
9822;BME280;4950;46.042;14.472;2024-01-15T02:10:11;96621.94;;;6.16;85.34
9822;BME280;4950;46.042;14.472;2024-01-15T02:12:38;96620.34;;;6.15;85.25
9822;BME280;4950;46.042;14.472;2024-01-15T02:15:05;96618.47;;;6.09;85.09
9822;BME280;4950;46.042;14.472;2024-01-15T02:17:32;96615.34;;;5.99;86.78
9822;BME280;4950;46.042;14.472;2024-01-15T02:20:00;96610.22;;;5.99;85.80
9822;BME280;4950;46.042;14.472;2024-01-15T02:22:27;96613.78;;;5.98;86.60
9822;BME280;4950;46.042;14.472;2024-01-15T02:24:55;96610.09;;;5.92;86.82
9822;BME280;4950;46.042;14.472;2024-01-15T02:27:22;96600.59;;;5.92;87.31
9822;BME280;4950;46.042;14.472;2024-01-15T02:29:49;96598.94;;;6.00;87.11
9822;BME280;4950;46.042;14.472;2024-01-15T02:32:15;96598.56;;;6.03;87.16
9822;BME280;4950;46.042;14.472;2024-01-15T02:34:42;96595.91;;;5.96;87.13
9822;BME280;4950;46.042;14.472;2024-01-15T02:37:09;96589.88;;;6.04;87.54
9822;BME280;4950;46.042;14.472;2024-01-15T02:39:35;96579.81;;;6.09;87.37
9822;BME280;4950;46.042;14.472;2024-01-15T02:42:04;96578.88;;;6.10;86.98
9822;BME280;4950;46.042;14.472;2024-01-15T02:44:30;96575.63;;;5.93;88.39
9822;BME280;4950;46.042;14.472;2024-01-15T02:46:57;96569.34;;;5.96;88.27
9822;BME280;4950;46.042;14.472;2024-01-15T02:49:24;96558.53;;;6.00;88.71
9822;BME280;4950;46.042;14.472;2024-01-15T02:51:50;96558.69;;;5.99;88.76
9822;BME280;4950;46.042;14.472;2024-01-15T02:54:17;96569.41;;;5.87;89.78
9822;BME280;4950;46.042;14.472;2024-01-15T02:56:44;96562.91;;;5.91;89.68
9822;BME280;4950;46.042;14.472;2024-01-15T02:59:12;96567.28;;;5.91;90.04
9822;BME280;4950;46.042;14.472;2024-01-15T03:01:38;96548.56;;;5.97;89.71
9822;BME280;4950;46.042;14.472;2024-01-15T03:04:05;96546.88;;;6.04;89.16
9822;BME280;4950;46.042;14.472;2024-01-15T03:06:32;96540.31;;;6.02;89.29
9822;BME280;4950;46.042;14.472;2024-01-15T03:08:58;96536.75;;;6.03;89.64
9822;BME280;4950;46.042;14.472;2024-01-15T03:11:25;96530.38;;;5.99;89.82
9822;BME280;4950;46.042;14.472;2024-01-15T03:13:52;96535.69;;;5.82;90.13
9822;BME280;4950;46.042;14.472;2024-01-15T03:16:20;96540.81;;;5.82;91.40
9822;BME280;4950;46.042;14.472;2024-01-15T03:18:46;96539.22;;;5.81;91.12
9822;BME280;4950;46.042;14.472;2024-01-15T03:21:13;96541.34;;;5.92;90.91
9822;BME280;4950;46.042;14.472;2024-01-15T03:23:40;96528.47;;;5.92;90.54
9822;BME280;4950;46.042;14.472;2024-01-15T03:26:06;96529.19;;;5.86;90.20
9822;BME280;4950;46.042;14.472;2024-01-15T03:28:33;96525.63;;;5.87;91.07
9822;BME280;4950;46.042;14.472;2024-01-15T03:31:00;96516.94;;;5.88;90.98
9822;BME280;4950;46.042;14.472;2024-01-15T03:33:28;96512.50;;;5.82;90.79
9822;BME280;4950;46.042;14.472;2024-01-15T03:35:54;96498.63;;;5.83;91.14
9822;BME280;4950;46.042;14.472;2024-01-15T03:38:22;96503.16;;;5.81;91.57
9822;BME280;4950;46.042;14.472;2024-01-15T03:40:49;96497.41;;;5.79;91.58
9822;BME280;4950;46.042;14.472;2024-01-15T03:43:15;96492.06;;;5.81;91.34
9822;BME280;4950;46.042;14.472;2024-01-15T03:45:42;96499.25;;;5.85;91.66
9822;BME280;4950;46.042;14.472;2024-01-15T03:48:09;96500.25;;;5.84;91.60
9822;BME280;4950;46.042;14.472;2024-01-15T03:50:37;96494.72;;;5.87;91.43
9822;BME280;4950;46.042;14.472;2024-01-15T03:53:04;96495.72;;;5.86;91.97
9822;BME280;4950;46.042;14.472;2024-01-15T03:55:30;96486.81;;;5.89;91.67
9822;BME280;4950;46.042;14.472;2024-01-15T03:57:57;96480.88;;;5.73;91.99
9822;BME280;4950;46.042;14.472;2024-01-15T04:00:24;96481.50;;;5.76;92.51
9822;BME280;4950;46.042;14.472;2024-01-15T04:02:50;96483.00;;;5.70;92.50
9822;BME280;4950;46.042;14.472;2024-01-15T04:05:17;96478.47;;;5.72;92.61
9822;BME280;4950;46.042;14.472;2024-01-15T04:07:45;96469.00;;;5.72;92.40
9822;BME280;4950;46.042;14.472;2024-01-15T04:10:12;96452.50;;;5.67;92.70
9822;BME280;4950;46.042;14.472;2024-01-15T04:12:39;96458.44;;;5.67;92.77
9822;BME280;4950;46.042;14.472;2024-01-15T04:15:06;96456.38;;;5.78;92.60
9822;BME280;4950;46.042;14.472;2024-01-15T04:17:33;96451.06;;;5.79;92.21
9822;BME280;4950;46.042;14.472;2024-01-15T04:19:59;96452.56;;;5.73;91.89
9822;BME280;4950;46.042;14.472;2024-01-15T04:22:27;96455.94;;;5.74;91.79
9822;BME280;4950;46.042;14.472;2024-01-15T04:24:55;96464.91;;;5.78;92.08
9822;BME280;4950;46.042;14.472;2024-01-15T04:27:21;96465.59;;;5.72;92.16
9822;BME280;4950;46.042;14.472;2024-01-15T04:29:48;96464.03;;;5.71;92.40
9822;BME280;4950;46.042;14.472;2024-01-15T04:32:15;96456.91;;;5.73;92.57
9822;BME280;4950;46.042;14.472;2024-01-15T04:34:41;96453.72;;;5.71;92.50
9822;BME280;4950;46.042;14.472;2024-01-15T04:37:08;96461.44;;;5.71;92.71
9822;BME280;4950;46.042;14.472;2024-01-15T04:39:35;96460.47;;;5.72;93.14
9822;BME280;4950;46.042;14.472;2024-01-15T04:42:03;96453.72;;;5.71;93.12
9822;BME280;4950;46.042;14.472;2024-01-15T04:44:30;96443.59;;;5.69;92.88
9822;BME280;4950;46.042;14.472;2024-01-15T04:46:57;96440.84;;;5.71;93.02
9822;BME280;4950;46.042;14.472;2024-01-15T04:49:24;96441.13;;;5.61;93.50
9822;BME280;4950;46.042;14.472;2024-01-15T04:51:52;96437.06;;;5.37;93.91
9822;BME280;4950;46.042;14.472;2024-01-15T04:54:19;96442.47;;;5.27;95.50
9822;BME280;4950;46.042;14.472;2024-01-15T04:56:45;96449.97;;;5.29;96.00
9822;BME280;4950;46.042;14.472;2024-01-15T04:59:13;96446.91;;;5.33;95.58
9822;BME280;4950;46.042;14.472;2024-01-15T05:01:41;96446.97;;;5.40;95.46
9822;BME280;4950;46.042;14.472;2024-01-15T05:04:07;96446.28;;;5.46;95.48
9822;BME280;4950;46.042;14.472;2024-01-15T05:06:34;96454.72;;;5.55;94.43
9822;BME280;4950;46.042;14.472;2024-01-15T05:09:01;96461.63;;;5.54;94.53
9822;BME280;4950;46.042;14.472;2024-01-15T05:11:28;96452.84;;;5.64;94.01
9822;BME280;4950;46.042;14.472;2024-01-15T05:13:55;96452.50;;;5.67;93.70
9822;BME280;4950;46.042;14.472;2024-01-15T05:16:23;96450.38;;;5.70;93.72
9822;BME280;4950;46.042;14.472;2024-01-15T05:18:49;96447.59;;;5.72;93.60
9822;BME280;4950;46.042;14.472;2024-01-15T05:21:16;96439.88;;;5.72;93.49
9822;BME280;4950;46.042;14.472;2024-01-15T05:23:43;96430.56;;;5.71;93.43
9822;BME280;4950;46.042;14.472;2024-01-15T05:26:09;96436.59;;;5.63;93.40
9822;BME280;4950;46.042;14.472;2024-01-15T05:28:36;96439.34;;;5.62;93.94
9822;BME280;4950;46.042;14.472;2024-01-15T05:31:03;96429.59;;;5.57;94.27
9822;BME280;4950;46.042;14.472;2024-01-15T05:33:31;96417.78;;;5.63;94.42
9822;BME280;4950;46.042;14.472;2024-01-15T05:35:58;96427.09;;;5.64;94.48
9822;BME280;4950;46.042;14.472;2024-01-15T05:38:25;96424.78;;;5.69;93.76
9822;BME280;4950;46.042;14.472;2024-01-15T05:40:51;96423.44;;;5.73;93.58
9822;BME280;4950;46.042;14.472;2024-01-15T05:43:18;96426.91;;;5.65;94.01
9822;BME280;4950;46.042;14.472;2024-01-15T05:45:45;96431.63;;;5.62;94.14
9822;BME280;4950;46.042;14.472;2024-01-15T05:48:12;96425.06;;;5.59;94.51
9822;BME280;4950;46.042;14.472;2024-01-15T05:50:40;96436.31;;;5.58;94.31
9822;BME280;4950;46.042;14.472;2024-01-15T05:53:06;96436.31;;;5.58;94.49
9822;BME280;4950;46.042;14.472;2024-01-15T05:55:33;96433.03;;;5.34;95.53
9822;BME280;4950;46.042;14.472;2024-01-15T05:58:00;96431.00;;;5.45;96.08
9822;BME280;4950;46.042;14.472;2024-01-15T06:00:26;96423.84;;;5.25;96.49
9822;BME280;4950;46.042;14.472;2024-01-15T06:02:53;96427.19;;;5.26;97.49
9822;BME280;4950;46.042;14.472;2024-01-15T06:05:20;96428.78;;;5.42;96.67
9822;BME280;4950;46.042;14.472;2024-01-15T06:07:48;96418.34;;;5.43;96.16
9822;BME280;4950;46.042;14.472;2024-01-15T06:10:14;96420.53;;;5.46;96.14
9822;BME280;4950;46.042;14.472;2024-01-15T06:12:43;96423.56;;;5.50;95.87
9822;BME280;4950;46.042;14.472;2024-01-15T06:15:10;96424.28;;;5.59;95.80
9822;BME280;4950;46.042;14.472;2024-01-15T06:17:36;96438.56;;;5.61;95.40
9822;BME280;4950;46.042;14.472;2024-01-15T06:20:04;96431.72;;;5.68;94.63
9822;BME280;4950;46.042;14.472;2024-01-15T06:22:31;96426.81;;;5.73;94.42
9822;BME280;4950;46.042;14.472;2024-01-15T06:24:59;96428.44;;;5.74;94.18
9822;BME280;4950;46.042;14.472;2024-01-15T06:27:26;96434.72;;;5.72;94.39
9822;BME280;4950;46.042;14.472;2024-01-15T06:29:52;96428.94;;;5.70;94.19
9822;BME280;4950;46.042;14.472;2024-01-15T06:32:21;96432.41;;;5.62;93.99
9822;BME280;4950;46.042;14.472;2024-01-15T06:34:47;96432.34;;;5.56;94.82
9822;BME280;4950;46.042;14.472;2024-01-15T06:37:14;96414.59;;;5.61;94.82
9822;BME280;4950;46.042;14.472;2024-01-15T06:39:41;96416.72;;;5.57;94.43
9822;BME280;4950;46.042;14.472;2024-01-15T06:42:09;96419.47;;;5.56;94.65
9822;BME280;4950;46.042;14.472;2024-01-15T06:44:35;96412.63;;;5.63;94.85
9822;BME280;4950;46.042;14.472;2024-01-15T06:47:02;96415.66;;;5.66;94.56
9822;BME280;4950;46.042;14.472;2024-01-15T06:49:29;96415.38;;;5.61;94.67
9822;BME280;4950;46.042;14.472;2024-01-15T06:51:56;96410.50;;;5.66;94.82
9822;BME280;4950;46.042;14.472;2024-01-15T06:54:22;96425.22;;;5.72;94.38
9822;BME280;4950;46.042;14.472;2024-01-15T06:56:51;96420.69;;;5.74;94.31
9822;BME280;4950;46.042;14.472;2024-01-15T06:59:19;96426.13;;;5.65;94.33
9822;BME280;4950;46.042;14.472;2024-01-15T07:01:46;96420.44;;;5.69;94.82
9822;BME280;4950;46.042;14.472;2024-01-15T07:04:13;96426.56;;;5.68;94.38
9822;BME280;4950;46.042;14.472;2024-01-15T07:06:39;96432.84;;;5.66;94.41
9822;BME280;4950;46.042;14.472;2024-01-15T07:09:06;96433.75;;;5.73;94.33
9822;BME280;4950;46.042;14.472;2024-01-15T07:11:34;96435.34;;;5.74;93.93
9822;BME280;4950;46.042;14.472;2024-01-15T07:14:01;96429.84;;;5.77;93.63
9822;BME280;4950;46.042;14.472;2024-01-15T07:16:29;96426.31;;;5.63;93.79
9822;BME280;4950;46.042;14.472;2024-01-15T07:18:55;96430.66;;;5.63;94.47
9822;BME280;4950;46.042;14.472;2024-01-15T07:21:22;96429.44;;;5.59;96.08
9822;BME280;4950;46.042;14.472;2024-01-15T07:23:49;96437.56;;;5.62;96.18
9822;BME280;4950;46.042;14.472;2024-01-15T07:26:16;96427.09;;;5.64;96.31
9822;BME280;4950;46.042;14.472;2024-01-15T07:28:42;96433.84;;;5.65;96.18
9822;BME280;4950;46.042;14.472;2024-01-15T07:31:09;96426.19;;;5.71;96.08
9822;BME280;4950;46.042;14.472;2024-01-15T07:33:37;96430.00;;;5.76;95.06
9822;BME280;4950;46.042;14.472;2024-01-15T07:36:04;96433.81;;;5.80;94.58
9822;BME280;4950;46.042;14.472;2024-01-15T07:38:31;96432.25;;;5.79;94.27
9822;BME280;4950;46.042;14.472;2024-01-15T07:40:58;96427.59;;;5.74;94.50
9822;BME280;4950;46.042;14.472;2024-01-15T07:43:25;96425.03;;;5.74;95.04
9822;BME280;4950;46.042;14.472;2024-01-15T07:45:53;96430.09;;;5.82;94.89
9822;BME280;4950;46.042;14.472;2024-01-15T07:48:19;96419.53;;;5.77;94.71
9822;BME280;4950;46.042;14.472;2024-01-15T07:50:48;96425.41;;;5.71;94.66
9822;BME280;4950;46.042;14.472;2024-01-15T07:53:14;96429.66;;;5.79;95.05
9822;BME280;4950;46.042;14.472;2024-01-15T07:55:41;96424.13;;;5.82;95.47
9822;BME280;4950;46.042;14.472;2024-01-15T07:58:08;96426.53;;;5.83;95.21
9822;BME280;4950;46.042;14.472;2024-01-15T08:00:35;96424.75;;;5.84;94.96
9822;BME280;4950;46.042;14.472;2024-01-15T08:03:01;96426.19;;;5.86;95.09
9822;BME280;4950;46.042;14.472;2024-01-15T08:05:28;96428.75;;;5.86;94.84
9822;BME280;4950;46.042;14.472;2024-01-15T08:07:57;96426.81;;;5.88;94.37
9822;BME280;4950;46.042;14.472;2024-01-15T08:10:24;96429.22;;;5.90;94.63
9822;BME280;4950;46.042;14.472;2024-01-15T08:12:50;96428.59;;;5.88;94.02
9822;BME280;4950;46.042;14.472;2024-01-15T08:15:17;96438.97;;;5.94;93.67
9822;BME280;4950;46.042;14.472;2024-01-15T08:17:44;96436.25;;;5.96;93.99
9822;BME280;4950;46.042;14.472;2024-01-15T08:20:11;96431.88;;;5.97;93.58
9822;BME280;4950;46.042;14.472;2024-01-15T08:22:38;96429.91;;;5.99;93.55
9822;BME280;4950;46.042;14.472;2024-01-15T08:25:07;96443.06;;;6.04;93.46
9822;BME280;4950;46.042;14.472;2024-01-15T08:27:35;96444.56;;;5.98;93.76
9822;BME280;4950;46.042;14.472;2024-01-15T08:30:02;96439.59;;;5.97;94.45
9822;BME280;4950;46.042;14.472;2024-01-15T08:32:29;96441.38;;;5.96;93.97
9822;BME280;4950;46.042;14.472;2024-01-15T08:34:56;96440.91;;;5.92;94.18
9822;BME280;4950;46.042;14.472;2024-01-15T08:37:23;96436.38;;;5.94;94.21
9822;BME280;4950;46.042;14.472;2024-01-15T08:39:49;96433.72;;;6.03;93.69
9822;BME280;4950;46.042;14.472;2024-01-15T08:42:17;96440.03;;;6.00;93.41
9822;BME280;4950;46.042;14.472;2024-01-15T08:44:44;96445.03;;;6.02;93.33
9822;BME280;4950;46.042;14.472;2024-01-15T08:47:12;96436.69;;;6.00;93.26
9822;BME280;4950;46.042;14.472;2024-01-15T08:49:39;96439.88;;;6.02;93.21
9822;BME280;4950;46.042;14.472;2024-01-15T08:52:06;96447.41;;;6.03;93.06
9822;BME280;4950;46.042;14.472;2024-01-15T08:54:32;96455.94;;;6.04;92.95
9822;BME280;4950;46.042;14.472;2024-01-15T08:57:00;96456.38;;;6.07;92.30
9822;BME280;4950;46.042;14.472;2024-01-15T08:59:28;96450.41;;;6.07;92.22
9822;BME280;4950;46.042;14.472;2024-01-15T09:01:55;96453.16;;;6.05;92.36
9822;BME280;4950;46.042;14.472;2024-01-15T09:04:23;96446.50;;;6.11;91.62
9822;BME280;4950;46.042;14.472;2024-01-15T09:06:50;96441.00;;;6.14;91.59
9822;BME280;4950;46.042;14.472;2024-01-15T09:09:16;96451.91;;;6.16;91.57
9822;BME280;4950;46.042;14.472;2024-01-15T09:11:45;96445.41;;;6.20;90.71
9822;BME280;4950;46.042;14.472;2024-01-15T09:14:11;96453.56;;;6.24;90.76
9822;BME280;4950;46.042;14.472;2024-01-15T09:16:39;96446.91;;;6.29;90.25
9822;BME280;4950;46.042;14.472;2024-01-15T09:19:06;96452.50;;;6.33;90.14
9822;BME280;4950;46.042;14.472;2024-01-15T09:21:33;96451.66;;;6.32;89.78
9822;BME280;4950;46.042;14.472;2024-01-15T09:23:59;96452.28;;;6.35;89.26
9822;BME280;4950;46.042;14.472;2024-01-15T09:26:26;96449.72;;;6.35;89.47
9822;BME280;4950;46.042;14.472;2024-01-15T09:28:53;96449.00;;;6.41;89.63
9822;BME280;4950;46.042;14.472;2024-01-15T09:31:20;96435.41;;;6.53;89.39
9822;BME280;4950;46.042;14.472;2024-01-15T09:33:49;96442.25;;;6.61;88.96
9822;BME280;4950;46.042;14.472;2024-01-15T09:36:17;96446.66;;;6.67;88.88
9822;BME280;4950;46.042;14.472;2024-01-15T09:38:44;96445.72;;;6.75;88.85
9822;BME280;4950;46.042;14.472;2024-01-15T09:41:11;96439.91;;;6.88;88.97
9822;BME280;4950;46.042;14.472;2024-01-15T09:43:37;96434.94;;;6.93;89.04
9822;BME280;4950;46.042;14.472;2024-01-15T09:46:05;96442.19;;;7.04;89.05
9822;BME280;4950;46.042;14.472;2024-01-15T09:48:32;96432.53;;;7.13;88.93
9822;BME280;4950;46.042;14.472;2024-01-15T09:51:05;96435.31;;;7.11;87.91
9822;BME280;4950;46.042;14.472;2024-01-15T09:53:33;96416.63;;;7.09;87.63
9822;BME280;4950;46.042;14.472;2024-01-15T09:56:00;96415.13;;;7.22;87.98
9822;BME280;4950;46.042;14.472;2024-01-15T09:58:27;96409.38;;;7.26;87.70
9822;BME280;4950;46.042;14.472;2024-01-15T10:00:55;96406.09;;;7.39;88.29
9822;BME280;4950;46.042;14.472;2024-01-15T10:03:22;96401.78;;;7.53;85.94
9822;BME280;4950;46.042;14.472;2024-01-15T10:05:49;96399.44;;;7.58;85.29
9822;BME280;4950;46.042;14.472;2024-01-15T10:08:18;96404.84;;;7.70;85.62
9822;BME280;4950;46.042;14.472;2024-01-15T10:10:45;96401.84;;;7.66;83.62
9822;BME280;4950;46.042;14.472;2024-01-15T10:13:12;96395.31;;;7.70;84.15
9822;BME280;4950;46.042;14.472;2024-01-15T10:15:39;96391.53;;;7.73;85.29
9822;BME280;4950;46.042;14.472;2024-01-15T10:18:08;96388.81;;;7.81;84.80
9822;BME280;4950;46.042;14.472;2024-01-15T10:20:34;96378.09;;;7.91;84.34
9822;BME280;4950;46.042;14.472;2024-01-15T10:23:01;96375.31;;;7.93;84.21
9822;BME280;4950;46.042;14.472;2024-01-15T10:25:29;96376.72;;;8.02;83.91
9822;BME280;4950;46.042;14.472;2024-01-15T10:28:00;96374.38;;;8.07;83.08
9822;BME280;4950;46.042;14.472;2024-01-15T10:30:27;96368.41;;;8.13;82.50
9822;BME280;4950;46.042;14.472;2024-01-15T10:32:58;96371.19;;;8.05;80.56
9822;BME280;4950;46.042;14.472;2024-01-15T10:35:27;96366.94;;;7.84;81.44
9822;BME280;4950;46.042;14.472;2024-01-15T10:37:54;96353.63;;;7.80;81.19
9822;BME280;4950;46.042;14.472;2024-01-15T10:40:21;96351.44;;;7.90;81.28
9822;BME280;4950;46.042;14.472;2024-01-15T10:42:49;96347.69;;;7.93;81.39
9822;BME280;4950;46.042;14.472;2024-01-15T10:45:18;96334.19;;;7.98;80.78
9822;BME280;4950;46.042;14.472;2024-01-15T10:47:45;96336.59;;;8.13;79.96
9822;BME280;4950;46.042;14.472;2024-01-15T10:50:14;96332.00;;;8.08;80.03
9822;BME280;4950;46.042;14.472;2024-01-15T10:52:42;96328.63;;;8.01;79.07
9822;BME280;4950;46.042;14.472;2024-01-15T10:55:10;96331.81;;;8.03;79.88
9822;BME280;4950;46.042;14.472;2024-01-15T10:57:37;96324.84;;;8.10;80.33
9822;BME280;4950;46.042;14.472;2024-01-15T11:00:06;96313.72;;;8.16;79.58
9822;BME280;4950;46.042;14.472;2024-01-15T11:02:40;96317.13;;;8.23;78.52
9822;BME280;4950;46.042;14.472;2024-01-15T11:05:07;96308.16;;;8.26;78.87
9822;BME280;4950;46.042;14.472;2024-01-15T11:07:34;96316.72;;;8.20;78.62
9822;BME280;4950;46.042;14.472;2024-01-15T11:10:03;96303.00;;;8.13;78.61
9822;BME280;4950;46.042;14.472;2024-01-15T11:12:31;96308.97;;;8.13;77.81
9822;BME280;4950;46.042;14.472;2024-01-15T11:15:01;96309.16;;;8.18;78.33
9822;BME280;4950;46.042;14.472;2024-01-15T11:17:58;96309.97;;;8.25;78.31
9822;BME280;4950;46.042;14.472;2024-01-15T11:20:25;96306.56;;;8.31;77.63
9822;BME280;4950;46.042;14.472;2024-01-15T11:22:52;96305.78;;;8.18;78.24
9822;BME280;4950;46.042;14.472;2024-01-15T11:25:19;96305.19;;;8.09;78.50
9822;BME280;4950;46.042;14.472;2024-01-15T11:27:47;96300.59;;;7.98;78.75
9822;BME280;4950;46.042;14.472;2024-01-15T11:30:16;96304.78;;;8.12;78.75
9822;BME280;4950;46.042;14.472;2024-01-15T11:32:46;96300.59;;;8.18;78.83
9822;BME280;4950;46.042;14.472;2024-01-15T11:35:14;96294.84;;;8.22;78.81
9822;BME280;4950;46.042;14.472;2024-01-15T11:37:56;96299.00;;;8.10;79.22
9822;BME280;4950;46.042;14.472;2024-01-15T11:40:36;96293.06;;;8.03;79.08
9822;BME280;4950;46.042;14.472;2024-01-15T11:43:04;96294.22;;;8.00;79.33
9822;BME280;4950;46.042;14.472;2024-01-15T11:45:32;96288.66;;;7.83;80.05
9822;BME280;4950;46.042;14.472;2024-01-15T11:48:09;96285.69;;;7.93;79.69
9822;BME280;4950;46.042;14.472;2024-01-15T11:50:39;96278.53;;;8.02;79.13
9822;BME280;4950;46.042;14.472;2024-01-15T11:53:12;96270.81;;;8.08;79.68
9822;BME280;4950;46.042;14.472;2024-01-15T11:55:43;96263.63;;;8.17;78.98
9822;BME280;4950;46.042;14.472;2024-01-15T11:58:11;96260.03;;;8.18;79.18
9822;BME280;4950;46.042;14.472;2024-01-15T12:00:42;96251.50;;;8.24;78.44
9822;BME280;4950;46.042;14.472;2024-01-15T12:03:10;96251.69;;;8.09;79.49
9822;BME280;4950;46.042;14.472;2024-01-15T12:05:37;96251.69;;;8.16;80.80
9822;BME280;4950;46.042;14.472;2024-01-15T12:08:04;96251.31;;;8.19;81.20
9822;BME280;4950;46.042;14.472;2024-01-15T12:10:36;96258.25;;;8.05;82.84
9822;BME280;4950;46.042;14.472;2024-01-15T12:13:05;96248.72;;;8.13;82.43
9822;BME280;4950;46.042;14.472;2024-01-15T12:15:32;96237.41;;;8.07;82.74
9822;BME280;4950;46.042;14.472;2024-01-15T12:18:01;96236.22;;;8.03;82.50
9822;BME280;4950;46.042;14.472;2024-01-15T12:20:30;96227.03;;;8.00;82.95
9822;BME280;4950;46.042;14.472;2024-01-15T12:22:57;96223.06;;;7.84;82.75
9822;BME280;4950;46.042;14.472;2024-01-15T12:25:25;96220.47;;;7.84;82.95
9822;BME280;4950;46.042;14.472;2024-01-15T12:27:53;96222.66;;;7.74;83.00
9822;BME280;4950;46.042;14.472;2024-01-15T12:30:20;96216.31;;;7.70;83.19
9822;BME280;4950;46.042;14.472;2024-01-15T12:32:46;96211.13;;;7.77;82.50
9822;BME280;4950;46.042;14.472;2024-01-15T12:35:14;96213.16;;;7.81;82.06
9822;BME280;4950;46.042;14.472;2024-01-15T12:37:43;96210.13;;;7.71;81.05
9822;BME280;4950;46.042;14.472;2024-01-15T12:40:12;96209.94;;;7.72;81.00
9822;BME280;4950;46.042;14.472;2024-01-15T12:42:40;96219.28;;;7.80;80.72
9822;BME280;4950;46.042;14.472;2024-01-15T12:45:08;96215.72;;;7.68;80.50
9822;BME280;4950;46.042;14.472;2024-01-15T12:47:36;96205.97;;;7.50;80.58
9822;BME280;4950;46.042;14.472;2024-01-15T12:50:06;96212.13;;;7.62;80.78
9822;BME280;4950;46.042;14.472;2024-01-15T12:52:33;96199.81;;;7.78;80.31
9822;BME280;4950;46.042;14.472;2024-01-15T12:55:01;96193.84;;;7.77;80.57
9822;BME280;4950;46.042;14.472;2024-01-15T12:57:28;96194.06;;;7.89;80.73
9822;BME280;4950;46.042;14.472;2024-01-15T12:59:54;96197.63;;;7.95;79.99
9822;BME280;4950;46.042;14.472;2024-01-15T13:02:21;96198.44;;;7.82;80.65
9822;BME280;4950;46.042;14.472;2024-01-15T13:04:48;96190.69;;;7.88;79.82
9822;BME280;4950;46.042;14.472;2024-01-15T13:07:15;96198.63;;;7.87;80.65
9822;BME280;4950;46.042;14.472;2024-01-15T13:09:42;96199.00;;;7.77;80.76
9822;BME280;4950;46.042;14.472;2024-01-15T13:12:10;96197.63;;;7.75;81.43
9822;BME280;4950;46.042;14.472;2024-01-15T13:14:37;96195.44;;;7.65;81.75
9822;BME280;4950;46.042;14.472;2024-01-15T13:17:04;96196.22;;;7.59;81.79
9822;BME280;4950;46.042;14.472;2024-01-15T13:19:31;96187.09;;;7.56;81.98
9822;BME280;4950;46.042;14.472;2024-01-15T13:21:59;96187.88;;;7.43;82.75